createdAt,value
2022-10-23T00:01:26.357Z,11.89
2022-10-23T00:31:30.590Z,11.77
2022-10-23T01:01:34.803Z,11.69
2022-10-23T01:31:43.550Z,11.71
2022-10-23T03:03:08.106Z,11.49
2022-10-23T03:33:12.304Z,11.49
2022-10-23T04:03:16.399Z,11.57
2022-10-23T04:33:20.807Z,11.40
2022-10-23T05:03:26.072Z,11.31
2022-10-23T05:33:31.057Z,11.03
2022-10-23T06:03:35.211Z,10.65
2022-10-23T06:33:39.600Z,10.85
2022-10-23T07:03:43.729Z,11.21
2022-10-23T07:33:48.163Z,12.46
2022-10-23T08:03:52.731Z,13.04
2022-10-23T08:33:56.955Z,13.29
2022-10-23T09:04:01.330Z,13.23
2022-10-23T09:34:09.656Z,13.53
2022-10-23T10:04:15.795Z,13.83
2022-10-23T10:34:25.542Z,15.48
2022-10-23T11:04:35.071Z,15.14
2022-10-23T11:34:48.499Z,20.06
2022-10-23T12:04:53.783Z,18.19
2022-10-23T12:35:09.394Z,26.83
2022-10-23T13:05:16.157Z,22.92
2022-10-23T13:35:23.903Z,21.63
2022-10-23T14:05:28.039Z,20.78
2022-10-23T14:35:32.278Z,20.44
2022-10-23T15:05:36.435Z,18.26
2022-10-23T15:35:40.629Z,16.93
2022-10-23T16:05:44.793Z,16.37
2022-10-23T16:35:48.926Z,16.06
2022-10-23T17:05:53.227Z,16.17
2022-10-23T17:35:57.349Z,15.67
2022-10-23T18:06:07.398Z,15.39
2022-10-23T18:36:16.476Z,14.94
2022-10-23T19:06:21.055Z,15.06
2022-10-23T19:36:25.235Z,14.85
2022-10-23T20:06:34.476Z,14.68
2022-10-23T20:36:45.416Z,14.72
2022-10-23T21:07:08.908Z,14.64
2022-10-23T21:37:14.861Z,14.79
2022-10-23T22:07:19.395Z,14.66
2022-10-23T22:37:23.569Z,14.43
2022-10-23T23:07:27.687Z,14.05
2022-10-23T23:37:31.837Z,14.08
